Time;durP1;ratioP1;P1;durP2;ratioP2;P2;SDS_P1;SDS_P2;PMS_P1;PMS_P2;Temp;Humidity;BMP_temperature;BMP_pressure;BME280_temperature;BME280_humidity;BME280_pressure;Samples;Min_cycle;Max_cycle;Signal;HPM_P1;HPM_P2
2021/07/04 00:02:07;;;;;;;15.05;12.95;;;18.00;99.90;;;;;;4991596;28;20106;-68
2021/07/04 00:04:32;;;;;;;14.02;12.38;;;18.00;99.90;;;;;;4999101;28;20079;-68
2021/07/04 00:06:59;;;;;;;20.38;13.45;;;18.00;99.90;;;;;;4992728;28;20550;-68
2021/07/04 00:09:25;;;;;;;17.67;14.18;;;18.10;99.90;;;;;;4993299;28;20069;-68
2021/07/04 00:11:50;;;;;;;21.15;15.13;;;18.10;99.90;;;;;;4995573;28;20079;-68
2021/07/04 00:14:17;;;;;;;23.40;14.70;;;18.10;99.90;;;;;;4988792;28;20077;-68
2021/07/04 00:16:43;;;;;;;16.88;15.05;;;18.10;99.90;;;;;;4999542;28;20074;-68
2021/07/04 00:19:09;;;;;;;19.40;14.50;;;18.10;99.90;;;;;;4989784;28;20047;-68
2021/07/04 00:21:35;;;;;;;17.37;13.70;;;18.10;99.90;;;;;;4996546;28;20064;-68
2021/07/04 00:24:02;;;;;;;18.67;14.45;;;18.10;99.90;;;;;;4999186;28;20106;-68
2021/07/04 00:26:28;;;;;;;21.63;15.40;;;18.10;99.90;;;;;;4998153;28;20062;-68
2021/07/04 00:28:54;;;;;;;18.42;15.70;;;18.10;99.90;;;;;;4998136;28;20127;-68
2021/07/04 00:31:20;;;;;;;25.13;15.73;;;18.20;99.90;;;;;;5004457;28;20050;-68
2021/07/04 00:33:45;;;;;;;20.77;14.35;;;18.20;99.90;;;;;;5002284;28;20053;-69
2021/07/04 00:36:11;;;;;;;17.92;14.98;;;18.20;99.90;;;;;;4993503;28;20046;-68
2021/07/04 00:38:37;;;;;;;20.55;13.43;;;18.10;99.90;;;;;;4995389;28;20050;-67
2021/07/04 00:41:03;;;;;;;16.40;13.98;;;18.10;99.90;;;;;;4991617;28;20103;-67
2021/07/04 00:43:30;;;;;;;19.38;15.05;;;18.20;99.90;;;;;;4996055;28;20042;-68
2021/07/04 00:45:56;;;;;;;16.75;14.23;;;18.10;99.90;;;;;;4988516;28;20164;-70
2021/07/04 00:48:22;;;;;;;17.13;14.90;;;18.10;99.90;;;;;;4995559;28;20121;-69
2021/07/04 00:50:48;;;;;;;20.67;15.40;;;18.10;99.90;;;;;;4993341;28;20053;-68
2021/07/04 00:53:15;;;;;;;24.42;15.75;;;18.10;99.90;;;;;;4992550;28;20042;-68
2021/07/04 00:55:41;;;;;;;23.90;15.88;;;18.10;99.90;;;;;;5004957;28;20065;-68
2021/07/04 00:58:07;;;;;;;23.17;15.83;;;18.10;99.90;;;;;;4988012;28;20062;-68
2021/07/04 01:00:36;;;;;;;21.73;16.52;;;18.10;99.90;;;;;;4994120;28;20065;-69
2021/07/04 01:03:03;;;;;;;21.13;16.80;;;18.10;99.90;;;;;;5005263;28;20062;-67
2021/07/04 01:05:31;;;;;;;25.08;16.63;;;18.10;99.90;;;;;;4996343;28;20042;-67
2021/07/04 01:07:58;;;;;;;24.08;17.15;;;18.10;99.90;;;;;;5001634;28;20080;-68
2021/07/04 01:10:26;;;;;;;23.05;16.58;;;18.10;99.90;;;;;;4997525;28;20085;-68
2021/07/04 01:12:55;;;;;;;26.38;18.55;;;18.00;99.90;;;;;;4987592;28;20422;-69
2021/07/04 01:15:25;;;;;;;21.88;17.60;;;18.10;99.90;;;;;;4998213;28;20487;-67
2021/07/04 01:17:56;;;;;;;22.35;16.98;;;18.00;99.90;;;;;;4999372;28;20038;-68
2021/07/04 01:20:23;;;;;;;24.25;17.58;;;18.00;99.90;;;;;;5004076;28;20104;-68
2021/07/04 01:23:07;;;;;;;24.95;19.48;;;18.00;99.90;;;;;;5004140;28;20051;-69
2021/07/04 01:25:40;;;;;;;22.58;18.73;;;17.90;99.90;;;;;;4998412;28;20042;-68
2021/07/04 01:28:07;;;;;;;27.00;20.48;;;17.90;99.90;;;;;;4987814;28;20053;-69
2021/07/04 01:30:34;;;;;;;26.92;20.05;;;17.90;99.90;;;;;;4997644;28;20046;-68
2021/07/04 01:33:00;;;;;;;25.98;20.45;;;17.90;99.90;;;;;;4998242;28;20042;-69
2021/07/04 01:35:26;;;;;;;27.52;20.65;;;17.90;99.90;;;;;;5003685;28;20046;-68
2021/07/04 01:37:52;;;;;;;27.50;21.45;;;17.90;99.90;;;;;;5004223;28;20050;-70
2021/07/04 01:40:19;;;;;;;26.60;19.48;;;17.90;99.90;;;;;;5002822;28;20077;-68
2021/07/04 01:42:45;;;;;;;27.65;20.95;;;17.90;99.90;;;;;;4988056;28;20042;-67
2021/07/04 01:45:14;;;;;;;26.23;20.75;;;17.90;99.90;;;;;;4996813;28;20042;-67
2021/07/04 01:47:42;;;;;;;32.45;20.95;;;17.90;99.90;;;;;;4998829;28;20046;-68
2021/07/04 01:50:11;;;;;;;30.48;20.55;;;17.80;99.90;;;;;;4985226;28;20042;-68
2021/07/04 01:52:38;;;;;;;25.60;21.17;;;17.80;99.90;;;;;;4997872;28;20048;-68
2021/07/04 01:55:07;;;;;;;31.90;21.65;;;17.80;99.90;;;;;;4985689;28;20089;-68
2021/07/04 01:57:33;;;;;;;32.70;22.30;;;17.80;99.90;;;;;;4996468;28;20546;-68
2021/07/04 02:00:35;;;;;;;28.67;21.70;;;17.80;99.90;;;;;;4985745;28;20042;-68
2021/07/04 02:03:04;;;;;;;28.83;21.83;;;17.70;99.90;;;;;;4997567;28;20077;-68
2021/07/04 02:05:30;;;;;;;28.42;22.17;;;17.70;99.90;;;;;;4985432;28;20042;-68
2021/07/04 02:07:57;;;;;;;29.00;22.27;;;17.70;99.90;;;;;;4994327;28;20526;-68
2021/07/04 02:10:26;;;;;;;32.90;23.63;;;17.70;99.90;;;;;;4996572;28;20077;-67
2021/07/04 02:12:52;;;;;;;33.08;24.52;;;17.70;99.90;;;;;;4988135;28;20049;-67
2021/07/04 02:15:25;;;;;;;33.45;24.13;;;17.60;99.90;;;;;;4989871;28;20042;-68
2021/07/04 02:17:51;;;;;;;30.05;23.30;;;17.60;99.90;;;;;;5000650;28;20042;-68
2021/07/04 02:20:31;;;;;;;29.83;23.23;;;17.60;99.90;;;;;;4994619;28;20092;-68
2021/07/04 02:23:17;;;;;;;33.15;24.20;;;17.60;99.90;;;;;;4993194;28;20050;-68
2021/07/04 02:25:45;;;;;;;36.97;24.98;;;17.60;99.90;;;;;;4989205;28;20046;-68
2021/07/04 02:28:13;;;;;;;33.55;24.98;;;17.60;99.90;;;;;;4994493;28;20050;-68
2021/07/04 02:30:40;;;;;;;29.10;23.63;;;17.60;99.90;;;;;;4993953;28;20038;-68
2021/07/04 02:33:07;;;;;;;31.33;23.73;;;17.60;99.90;;;;;;5003034;28;20046;-68
2021/07/04 02:35:35;;;;;;;32.40;24.25;;;17.60;99.90;;;;;;4993116;28;20069;-68
2021/07/04 02:38:02;;;;;;;32.80;24.50;;;17.60;99.90;;;;;;4990660;28;20069;-68
2021/07/04 02:40:28;;;;;;;34.87;25.77;;;17.60;99.90;;;;;;4994944;28;20057;-67
2021/07/04 02:42:56;;;;;;;32.80;24.33;;;17.60;99.90;;;;;;4989724;28;20046;-69
2021/07/04 02:45:22;;;;;;;31.48;24.38;;;17.60;99.90;;;;;;4995014;28;20038;-68
2021/07/04 02:47:48;;;;;;;36.25;26.92;;;17.50;99.90;;;;;;5003076;28;20052;-68
2021/07/04 02:50:14;;;;;;;36.78;25.95;;;17.60;99.90;;;;;;5003335;28;20070;-68
2021/07/04 02:52:39;;;;;;;37.10;26.67;;;17.60;99.90;;;;;;5003552;28;20055;-68
2021/07/04 02:55:08;;;;;;;33.33;25.85;;;17.50;99.90;;;;;;4996696;28;20051;-68
2021/07/04 02:57:34;;;;;;;36.97;26.65;;;17.50;99.90;;;;;;4990054;28;20055;-68
2021/07/04 03:00:00;;;;;;;39.28;27.55;;;17.50;99.90;;;;;;5003119;28;20426;-69
2021/07/04 03:02:26;;;;;;;37.15;27.90;;;17.50;99.90;;;;;;4991214;28;20131;-68
2021/07/04 03:04:52;;;;;;;38.38;26.98;;;17.50;99.90;;;;;;4997379;28;20581;-68
2021/07/04 03:07:19;;;;;;;38.28;28.63;;;17.50;99.90;;;;;;5000213;28;20047;-68
2021/07/04 03:09:45;;;;;;;40.97;28.15;;;17.60;99.90;;;;;;5000314;28;20054;-68
2021/07/04 03:12:11;;;;;;;42.63;29.52;;;17.60;99.90;;;;;;4992903;28;20074;-69
2021/07/04 03:14:37;;;;;;;40.70;29.45;;;17.60;99.90;;;;;;4996718;28;20054;-69
2021/07/04 03:17:03;;;;;;;41.20;28.88;;;17.60;99.90;;;;;;4993384;28;20138;-68
2021/07/04 03:19:31;;;;;;;39.25;27.25;;;17.60;99.90;;;;;;4988490;28;20051;-68
2021/07/04 03:21:57;;;;;;;41.95;28.23;;;17.60;99.90;;;;;;5004140;28;20050;-68
2021/07/04 03:24:23;;;;;;;43.83;28.50;;;17.60;99.90;;;;;;5006266;28;20060;-69
2021/07/04 03:26:49;;;;;;;39.92;28.40;;;17.60;99.90;;;;;;5004209;28;20042;-69
2021/07/04 03:29:15;;;;;;;49.35;30.33;;;17.60;99.90;;;;;;4992560;28;20567;-68
2021/07/04 03:31:41;;;;;;;44.17;29.35;;;17.60;99.90;;;;;;4999812;28;20050;-68
2021/07/04 03:34:07;;;;;;;41.08;29.65;;;17.60;99.90;;;;;;4988585;28;20051;-68
2021/07/04 03:36:34;;;;;;;43.35;29.02;;;17.70;99.90;;;;;;4998348;28;20050;-69
2021/07/04 03:39:05;;;;;;;41.42;29.08;;;17.70;99.90;;;;;;4989699;28;20066;-69
2021/07/04 03:41:31;;;;;;;41.42;28.98;;;17.70;99.90;;;;;;4997097;28;20204;-68
2021/07/04 03:44:00;;;;;;;45.10;30.00;;;17.70;99.90;;;;;;4994661;28;20054;-69
2021/07/04 03:46:28;;;;;;;39.97;28.00;;;17.70;99.90;;;;;;5005595;28;20084;-68
2021/07/04 03:48:54;;;;;;;37.87;26.80;;;17.70;99.90;;;;;;5004579;28;20054;-69
2021/07/04 03:51:21;;;;;;;36.38;26.52;;;17.70;99.90;;;;;;4998910;28;20321;-69
2021/07/04 03:53:47;;;;;;;40.03;28.05;;;17.70;99.90;;;;;;4994686;28;20043;-69
2021/07/04 03:56:13;;;;;;;41.50;28.00;;;17.70;99.90;;;;;;4992036;28;20050;-68
2021/07/04 03:58:39;;;;;;;36.08;26.85;;;17.80;99.90;;;;;;4995122;28;20557;-69
2021/07/04 04:01:04;;;;;;;36.83;26.92;;;17.80;99.90;;;;;;5005368;28;20154;-69
2021/07/04 04:03:30;;;;;;;37.35;27.45;;;17.80;99.90;;;;;;4996239;28;20491;-69
2021/07/04 04:05:57;;;;;;;41.00;27.77;;;17.80;99.90;;;;;;4990427;28;20047;-69
2021/07/04 04:08:24;;;;;;;38.55;27.20;;;17.80;99.90;;;;;;4998159;28;20051;-69
2021/07/04 04:10:50;;;;;;;36.58;25.63;;;17.80;99.90;;;;;;5002873;28;20062;-69
2021/07/04 04:13:16;;;;;;;37.17;26.52;;;17.80;99.90;;;;;;5005558;28;20042;-69
2021/07/04 04:15:41;;;;;;;37.03;26.17;;;17.80;99.90;;;;;;4992896;28;20054;-69
2021/07/04 04:18:08;;;;;;;39.75;26.13;;;17.80;99.90;;;;;;5000616;28;20510;-68
2021/07/04 04:20:33;;;;;;;37.42;27.15;;;17.80;99.90;;;;;;4999396;28;20042;-68
2021/07/04 04:22:59;;;;;;;34.22;25.77;;;17.90;99.90;;;;;;4993734;28;20511;-69
2021/07/04 04:25:25;;;;;;;36.83;25.52;;;17.90;99.90;;;;;;4993527;28;20039;-69
2021/07/04 04:27:51;;;;;;;35.15;25.55;;;17.90;99.90;;;;;;4986908;28;20504;-69
2021/07/04 04:30:17;;;;;;;37.75;27.38;;;17.90;99.90;;;;;;4997781;28;20042;-68
2021/07/04 04:32:43;;;;;;;29.75;24.17;;;17.90;99.90;;;;;;4987333;28;20043;-68
2021/07/04 04:35:09;;;;;;;35.83;26.77;;;17.90;99.90;;;;;;5013571;28;20057;-69
2021/07/04 04:37:36;;;;;;;35.95;24.85;;;18.00;99.90;;;;;;4993373;28;20129;-69
2021/07/04 04:40:04;;;;;;;34.25;26.42;;;18.00;99.90;;;;;;5001293;28;20467;-69
2021/07/04 04:42:30;;;;;;;38.95;27.90;;;18.00;99.90;;;;;;4987124;28;20426;-69
2021/07/04 04:44:56;;;;;;;38.13;27.00;;;18.00;99.90;;;;;;4990434;28;20070;-68
2021/07/04 04:47:21;;;;;;;33.25;26.58;;;17.90;99.90;;;;;;4993172;28;20392;-68
2021/07/04 04:49:47;;;;;;;39.28;27.75;;;18.00;99.90;;;;;;5004811;28;20042;-69
2021/07/04 04:52:13;;;;;;;34.45;26.50;;;18.00;99.90;;;;;;5003896;28;20509;-69
2021/07/04 04:54:39;;;;;;;40.53;26.35;;;18.00;99.90;;;;;;4991670;28;20046;-69
2021/07/04 04:57:08;;;;;;;33.38;26.10;;;18.00;99.90;;;;;;5004685;28;20053;-69
2021/07/04 04:59:35;;;;;;;37.08;27.30;;;18.00;99.90;;;;;;4990315;28;20134;-69
2021/07/04 05:02:02;;;;;;;35.15;27.50;;;18.00;99.90;;;;;;4994308;28;20093;-69
2021/07/04 05:04:28;;;;;;;36.97;26.85;;;18.00;99.90;;;;;;4987126;28;20083;-69
2021/07/04 05:06:54;;;;;;;34.88;26.73;;;18.00;99.90;;;;;;4994286;28;20043;-69
2021/07/04 05:09:19;;;;;;;35.72;26.98;;;18.00;99.90;;;;;;4988393;28;20050;-68
2021/07/04 05:11:45;;;;;;;32.92;25.90;;;18.00;99.90;;;;;;4996938;28;20070;-68
2021/07/04 05:14:14;;;;;;;34.88;26.05;;;18.00;99.90;;;;;;5000695;28;20058;-68
2021/07/04 05:16:39;;;;;;;31.02;25.20;;;18.00;99.90;;;;;;5001688;28;20116;-70
2021/07/04 05:19:05;;;;;;;33.65;24.70;;;18.10;99.90;;;;;;4991211;28;20459;-69
2021/07/04 05:21:34;;;;;;;33.47;25.02;;;18.10;99.90;;;;;;4998791;28;20056;-68
2021/07/04 05:24:01;;;;;;;31.52;23.70;;;18.20;99.90;;;;;;4997674;28;20082;-69
2021/07/04 05:26:28;;;;;;;31.63;23.75;;;18.20;99.90;;;;;;4997347;28;20050;-69
2021/07/04 05:28:54;;;;;;;29.85;23.55;;;18.30;99.90;;;;;;4993098;28;20450;-69
2021/07/04 05:31:20;;;;;;;28.98;22.95;;;18.30;99.90;;;;;;5001897;28;20050;-69
2021/07/04 05:33:46;;;;;;;27.95;24.10;;;18.30;99.90;;;;;;4994538;28;20821;-68
2021/07/04 05:36:11;;;;;;;28.13;23.73;;;18.30;99.90;;;;;;4993576;28;20050;-70
2021/07/04 05:38:38;;;;;;;28.05;22.15;;;18.30;99.90;;;;;;4996472;28;20417;-69
2021/07/04 05:41:05;;;;;;;27.95;23.13;;;18.40;99.90;;;;;;4990975;28;20073;-69
2021/07/04 05:43:31;;;;;;;27.50;22.10;;;18.40;99.90;;;;;;4997238;28;20111;-69
2021/07/04 05:46:00;;;;;;;26.95;22.08;;;18.50;99.90;;;;;;4990361;28;20050;-68
2021/07/04 05:48:27;;;;;;;28.00;22.52;;;18.60;99.90;;;;;;4997656;28;20043;-70
2021/07/04 05:50:53;;;;;;;30.08;22.70;;;18.70;99.90;;;;;;4987198;28;20082;-70
2021/07/04 05:53:19;;;;;;;29.30;22.75;;;18.80;99.90;;;;;;4993711;28;20430;-70
2021/07/04 05:55:45;;;;;;;28.88;22.13;;;18.90;99.90;;;;;;4991205;28;20081;-70
2021/07/04 05:58:11;;;;;;;29.10;21.40;;;19.10;99.90;;;;;;5003452;28;20038;-69
2021/07/04 06:00:38;;;;;;;23.95;20.15;;;19.20;99.90;;;;;;4990800;28;20054;-69
2021/07/04 06:03:04;;;;;;;27.38;21.10;;;19.30;99.90;;;;;;4989836;28;20049;-69
2021/07/04 06:05:30;;;;;;;22.00;18.98;;;19.40;99.90;;;;;;5004117;28;20051;-69
2021/07/04 06:07:55;;;;;;;21.45;17.42;;;19.50;99.90;;;;;;4989801;28;20050;-70
2021/07/04 06:10:21;;;;;;;20.88;17.55;;;19.60;99.90;;;;;;4993913;28;20054;-69
2021/07/04 06:12:47;;;;;;;19.15;16.83;;;19.60;99.90;;;;;;5000604;28;20136;-70
2021/07/04 06:15:13;;;;;;;21.98;17.52;;;19.50;99.90;;;;;;4999776;28;20061;-69
2021/07/04 06:17:39;;;;;;;20.67;17.48;;;19.50;99.90;;;;;;4999538;28;20049;-70
2021/07/04 06:20:07;;;;;;;20.17;17.63;;;19.50;99.90;;;;;;5003233;28;20442;-69
2021/07/04 06:22:34;;;;;;;20.58;16.58;;;19.50;99.90;;;;;;5003564;28;20043;-70
2021/07/04 06:25:00;;;;;;;20.30;17.30;;;19.50;99.90;;;;;;5003503;28;20042;-69
2021/07/04 06:27:25;;;;;;;22.23;17.50;;;19.40;99.90;;;;;;4997100;28;20046;-69
2021/07/04 06:29:51;;;;;;;20.55;16.02;;;19.40;99.90;;;;;;4989521;28;20413;-69
2021/07/04 06:32:17;;;;;;;18.20;15.68;;;19.40;99.90;;;;;;5002225;28;20069;-69
2021/07/04 06:34:43;;;;;;;16.30;13.40;;;19.40;99.90;;;;;;5002912;28;20125;-69
2021/07/04 06:37:09;;;;;;;14.93;13.30;;;19.50;99.90;;;;;;4993370;28;20042;-70
2021/07/04 06:39:35;;;;;;;15.50;13.32;;;19.40;99.90;;;;;;4992182;28;20069;-70
2021/07/04 06:42:00;;;;;;;18.65;15.90;;;19.50;99.90;;;;;;4995579;28;20161;-69
2021/07/04 06:44:26;;;;;;;19.70;16.58;;;19.40;99.90;;;;;;4989619;28;20070;-70
2021/07/04 06:46:53;;;;;;;18.30;14.77;;;19.30;99.90;;;;;;4996869;28;20038;-69
2021/07/04 06:49:18;;;;;;;18.05;15.23;;;19.30;99.90;;;;;;5002937;28;20042;-69
2021/07/04 06:51:44;;;;;;;24.55;16.40;;;19.40;99.90;;;;;;4996920;28;20494;-69
2021/07/04 06:54:10;;;;;;;19.33;16.63;;;19.50;99.90;;;;;;4993516;28;20046;-69
2021/07/04 06:56:36;;;;;;;16.27;14.60;;;19.50;99.90;;;;;;5000434;28;20066;-70
2021/07/04 06:59:02;;;;;;;17.63;15.73;;;19.50;99.90;;;;;;4993518;28;20058;-70
2021/07/04 07:01:28;;;;;;;18.15;16.00;;;19.50;99.90;;;;;;5000255;28;20047;-70
2021/07/04 07:03:54;;;;;;;22.52;16.38;;;19.50;99.90;;;;;;4994661;28;20066;-70
2021/07/04 07:06:20;;;;;;;21.60;16.52;;;19.50;99.90;;;;;;4987678;28;20133;-70
2021/07/04 07:08:47;;;;;;;21.27;16.48;;;19.50;99.90;;;;;;4994843;28;20062;-69
2021/07/04 07:11:13;;;;;;;18.35;15.82;;;19.50;99.90;;;;;;5004415;28;20038;-69
2021/07/04 07:13:39;;;;;;;19.30;16.90;;;19.60;99.90;;;;;;4997653;28;20051;-69
2021/07/04 07:16:05;;;;;;;21.25;17.15;;;19.50;99.90;;;;;;4998886;28;20108;-70
2021/07/04 07:18:31;;;;;;;18.20;16.10;;;19.60;99.90;;;;;;5004871;28;20104;-70
2021/07/04 07:20:57;;;;;;;20.08;16.50;;;19.60;99.90;;;;;;5006370;28;20050;-70
2021/07/04 07:23:23;;;;;;;20.95;17.75;;;19.60;99.90;;;;;;5005059;28;20495;-69
2021/07/04 07:25:48;;;;;;;21.88;17.35;;;19.50;99.90;;;;;;4992191;28;20070;-69
2021/07/04 07:28:14;;;;;;;20.08;16.60;;;19.40;99.90;;;;;;4999877;28;20065;-70
2021/07/04 07:30:40;;;;;;;20.17;17.05;;;19.50;99.90;;;;;;4992519;28;20110;-70
2021/07/04 07:33:05;;;;;;;19.13;16.30;;;19.50;99.90;;;;;;4991759;28;20074;-69
2021/07/04 07:35:32;;;;;;;20.02;17.02;;;19.50;99.90;;;;;;5001472;28;20050;-69
2021/07/04 07:38:01;;;;;;;23.53;17.60;;;19.60;99.90;;;;;;4995530;28;20046;-69
2021/07/04 07:40:29;;;;;;;19.27;15.25;;;19.80;99.90;;;;;;4996987;28;20057;-70
2021/07/04 07:42:56;;;;;;;17.17;15.30;;;19.80;99.90;;;;;;4994246;28;20056;-71
2021/07/04 07:45:22;;;;;;;18.37;14.53;;;19.90;99.90;;;;;;4997502;28;20069;-71
2021/07/04 07:47:48;;;;;;;16.63;14.88;;;20.00;99.90;;;;;;5003030;28;20053;-70
2021/07/04 07:50:14;;;;;;;16.65;14.65;;;20.20;99.90;;;;;;4995209;28;20447;-70
2021/07/04 07:52:40;;;;;;;16.20;13.38;;;20.40;99.90;;;;;;4991630;28;20038;-71
2021/07/04 07:55:06;;;;;;;15.68;11.95;;;20.60;99.90;;;;;;4998253;28;20053;-73
2021/07/04 07:57:33;;;;;;;10.63;8.43;;;20.80;99.90;;;;;;5004574;28;20058;-72
2021/07/04 07:59:59;;;;;;;11.20;8.80;;;21.10;99.90;;;;;;4999716;28;20046;-70
2021/07/04 08:02:25;;;;;;;10.48;9.48;;;21.20;99.90;;;;;;4997124;28;20058;-70
2021/07/04 08:04:50;;;;;;;12.00;9.45;;;21.30;99.90;;;;;;4999186;28;20051;-71
2021/07/04 08:07:16;;;;;;;10.35;8.60;;;21.40;99.90;;;;;;4993301;28;20407;-71
2021/07/04 08:09:42;;;;;;;8.90;8.02;;;21.60;99.90;;;;;;5003261;28;20082;-71
2021/07/04 08:12:08;;;;;;;10.25;9.13;;;21.60;99.90;;;;;;5005063;28;20519;-71
2021/07/04 08:14:33;;;;;;;9.63;8.10;;;21.80;99.90;;;;;;5003581;28;20498;-71
2021/07/04 08:17:00;;;;;;;9.15;7.82;;;21.80;99.90;;;;;;5001199;28;20053;-69
2021/07/04 08:19:26;;;;;;;8.75;7.78;;;21.80;99.90;;;;;;4988998;28;20062;-69
2021/07/04 08:21:52;;;;;;;8.43;7.68;;;21.90;99.90;;;;;;4999387;28;20050;-71
2021/07/04 08:24:17;;;;;;;8.23;7.18;;;21.80;99.90;;;;;;4996924;28;20043;-71
2021/07/04 08:26:43;;;;;;;7.68;6.68;;;21.80;99.90;;;;;;4999066;28;20050;-69
2021/07/04 08:29:09;;;;;;;8.48;7.57;;;21.70;99.90;;;;;;4998040;28;20129;-70
2021/07/04 08:31:35;;;;;;;7.80;7.10;;;21.60;99.90;;;;;;4995788;28;20526;-69
2021/07/04 08:34:01;;;;;;;7.72;6.88;;;21.70;99.90;;;;;;5003906;28;20073;-70
2021/07/04 08:36:30;;;;;;;8.35;7.28;;;21.70;99.90;;;;;;4995330;28;20108;-69
2021/07/04 08:38:56;;;;;;;9.02;7.00;;;21.80;99.90;;;;;;4998618;28;20062;-70
2021/07/04 08:41:22;;;;;;;8.57;7.60;;;21.80;99.90;;;;;;5003233;28;20042;-70
2021/07/04 08:43:47;;;;;;;8.77;7.95;;;21.90;99.90;;;;;;5000998;28;20054;-71
2021/07/04 08:46:13;;;;;;;11.70;8.80;;;21.80;99.90;;;;;;4993395;28;20062;-70
2021/07/04 08:48:41;;;;;;;11.02;7.65;;;21.90;99.90;;;;;;5004402;28;20077;-70
2021/07/04 08:51:07;;;;;;;;;;;21.80;99.90;;;;;;4992858;28;20070;-70
2021/07/04 08:53:33;;;;;;;9.77;7.78;;;22.00;99.90;;;;;;4994478;28;21105;-69
2021/07/04 08:56:00;;;;;;;8.80;7.90;;;22.00;99.90;;;;;;4991194;28;20046;-69
2021/07/04 08:58:27;;;;;;;9.17;7.87;;;21.90;99.90;;;;;;5002226;28;20499;-71
2021/07/04 09:01:11;;;;;;;;;;;22.10;99.90;;;;;;5001269;28;20046;-69
2021/07/04 09:03:41;;;;;;;8.27;7.38;;;22.30;99.90;;;;;;4997697;28;20124;-70
2021/07/04 09:06:07;;;;;;;9.98;8.77;;;22.60;99.90;;;;;;4989526;28;20050;-71
2021/07/04 09:08:33;;;;;;;9.93;8.93;;;22.50;99.90;;;;;;4995739;28;20049;-70
2021/07/04 09:11:31;;;;;;;11.88;10.52;;;22.60;99.90;;;;;;4995618;28;20063;-70
2021/07/04 09:14:05;;;;;;;12.67;11.47;;;22.70;99.90;;;;;;4976148;28;20137;-71
2021/07/04 09:16:31;;;;;;;11.98;10.70;;;22.80;99.90;;;;;;4977374;28;20055;-71
2021/07/04 09:19:14;;;;;;;11.02;9.93;;;22.70;99.90;;;;;;4977955;28;20416;-70
2021/07/04 09:21:40;;;;;;;12.15;10.95;;;22.70;99.90;;;;;;4982144;28;20042;-69
2021/07/04 09:24:24;;;;;;;11.63;10.45;;;22.60;99.90;;;;;;4979259;28;20082;-69
2021/07/04 09:26:50;;;;;;;10.65;9.65;;;22.80;99.90;;;;;;4982281;28;20090;-70
2021/07/04 09:29:16;;;;;;;12.50;11.20;;;23.00;99.90;;;;;;4972096;28;20070;-69
2021/07/04 09:31:43;;;;;;;12.20;10.98;;;23.20;99.90;;;;;;4975782;28;20042;-70
2021/07/04 09:34:11;;;;;;;14.13;12.52;;;23.30;99.90;;;;;;4980523;28;20061;-72
2021/07/04 09:36:39;;;;;;;14.52;12.05;;;23.20;99.90;;;;;;4978670;28;20078;-71
2021/07/04 09:39:22;;;;;;;13.43;12.02;;;23.40;99.90;;;;;;4975950;28;20054;-72
2021/07/04 09:42:05;;;;;;;15.43;13.82;;;23.80;99.90;;;;;;4973435;28;20070;-71
2021/07/04 09:44:31;;;;;;;13.68;12.30;;;23.80;99.90;;;;;;4981546;28;20133;-72
2021/07/04 09:47:13;;;;;;;15.02;11.95;;;23.70;99.90;;;;;;4965144;28;20074;-72
2021/07/04 09:49:40;;;;;;;13.65;12.25;;;23.90;99.90;;;;;;4987594;28;20054;-72
2021/07/04 09:52:17;;;;;;;12.27;10.97;;;24.00;99.90;;;;;;4995164;28;20034;-72
2021/07/04 09:54:58;;;;;;;11.23;10.15;;;23.90;99.90;;;;;;4990697;28;20365;-70
2021/07/04 09:57:25;;;;;;;13.02;10.20;;;24.00;99.90;;;;;;4991053;28;20057;-70
2021/07/04 10:00:10;;;;;;;;;;;23.80;99.90;;;;;;4985759;28;20042;-70
2021/07/04 10:02:36;;;;;;;10.55;9.35;;;23.70;99.90;;;;;;4989524;28;19932;-71
2021/07/04 10:05:12;;;;;;;10.50;9.40;;;23.90;99.90;;;;;;5003060;28;20066;-71
2021/07/04 10:07:38;;;;;;;9.55;8.63;;;23.90;99.90;;;;;;4995395;28;20468;-71
2021/07/04 10:10:04;;;;;;;9.65;8.68;;;23.90;99.90;;;;;;4999072;28;20054;-72
2021/07/04 10:12:30;;;;;;;9.75;8.48;;;24.10;99.90;;;;;;4992949;28;20046;-71
2021/07/04 10:14:56;;;;;;;9.27;8.30;;;24.00;99.90;;;;;;4989079;28;20056;-71
2021/07/04 10:17:27;;;;;;;8.82;8.02;;;24.00;99.90;;;;;;5002084;28;20077;-70
2021/07/04 10:19:54;;;;;;;9.32;7.57;;;24.00;99.90;;;;;;4991315;28;20085;-71
2021/07/04 10:22:20;;;;;;;11.60;8.40;;;24.20;99.90;;;;;;5004835;28;20085;-71
2021/07/04 10:24:47;;;;;;;10.93;9.63;;;24.40;99.90;;;;;;4991528;28;20061;-70
2021/07/04 10:27:14;;;;;;;11.68;9.57;;;24.20;99.90;;;;;;4990491;28;20046;-71
2021/07/04 10:29:42;;;;;;;13.13;8.98;;;24.30;99.90;;;;;;4996679;28;20050;-70
2021/07/04 10:32:09;;;;;;;10.73;9.07;;;24.40;99.90;;;;;;5006648;28;20053;-71
2021/07/04 10:34:45;;;;;;;;;;;24.40;99.90;;;;;;4998869;28;20113;-71
2021/07/04 10:37:12;;;;;;;12.65;10.40;;;24.40;99.90;;;;;;4990098;28;19934;-71
2021/07/04 10:39:38;;;;;;;11.70;10.45;;;24.40;99.90;;;;;;4997304;28;20552;-70
2021/07/04 10:42:09;;;;;;;14.02;12.57;;;24.90;99.90;;;;;;5005433;28;20074;-70
2021/07/04 10:44:47;;;;;;;13.68;10.63;;;24.90;99.90;;;;;;4999194;28;20538;-72
2021/07/04 10:47:16;;;;;;;14.18;12.38;;;24.50;99.90;;;;;;4991682;28;20119;-70
2021/07/04 10:49:55;;;;;;;13.10;11.68;;;24.70;99.90;;;;;;4999278;28;20045;-71
2021/07/04 10:52:38;;;;;;;12.05;10.85;;;24.80;99.90;;;;;;4991956;28;20058;-71
2021/07/04 10:55:12;;;;;;;12.50;10.38;;;24.80;99.90;;;;;;5007388;28;20053;-72
2021/07/04 10:57:50;;;;;;;17.95;11.57;;;25.10;99.90;;;;;;5004285;28;20062;-71
2021/07/04 11:00:17;;;;;;;;;;;25.10;99.90;;;;;;4988036;28;20053;-70
2021/07/04 11:02:57;;;;;;;14.10;11.48;;;24.80;99.90;;;;;;5000863;28;20014;-71
2021/07/04 11:05:41;;;;;;;13.02;11.68;;;24.70;99.90;;;;;;4997941;28;20047;-71
2021/07/04 11:08:29;;;;;;;12.95;11.73;;;24.70;99.90;;;;;;4992938;28;20051;-70
2021/07/04 11:10:56;;;;;;;11.95;10.50;;;24.90;99.90;;;;;;4995727;28;20054;-70
2021/07/04 11:13:32;;;;;;;13.00;11.68;;;25.00;99.90;;;;;;4991320;28;20047;-70
2021/07/04 11:16:14;;;;;;;12.73;11.38;;;25.10;99.90;;;;;;4994491;28;20061;-71
2021/07/04 11:18:42;;;;;;;15.50;12.77;;;25.40;99.90;;;;;;4996073;28;20077;-71
2021/07/04 11:21:09;;;;;;;14.40;12.52;;;25.10;99.90;;;;;;5000235;28;20104;-72
2021/07/04 11:23:35;;;;;;;15.23;13.63;;;25.20;99.90;;;;;;4991439;28;20057;-72
2021/07/04 11:26:10;;;;;;;14.30;12.80;;;24.90;99.90;;;;;;4990613;28;20050;-71
2021/07/04 11:28:45;;;;;;;15.90;12.80;;;24.60;99.90;;;;;;5004286;28;20101;-71
2021/07/04 11:31:16;;;;;;;14.27;12.63;;;24.40;99.90;;;;;;4990966;28;20090;-71
2021/07/04 11:33:53;;;;;;;18.88;15.18;;;24.50;99.90;;;;;;5006666;28;20046;-72
2021/07/04 11:36:25;;;;;;;17.08;14.32;;;24.30;99.90;;;;;;5001922;28;20046;-71
2021/07/04 11:38:53;;;;;;;16.58;14.27;;;24.20;99.90;;;;;;5003435;28;20069;-71
2021/07/04 11:41:25;;;;;;;16.45;12.13;;;24.40;99.90;;;;;;4995369;28;20042;-71
2021/07/04 11:43:57;;;;;;;14.07;12.35;;;24.30;99.90;;;;;;5004538;28;20054;-69
2021/07/04 11:46:26;;;;;;;14.48;12.07;;;24.80;99.90;;;;;;4994102;28;20046;-69
2021/07/04 11:49:04;;;;;;;14.02;12.52;;;25.50;99.90;;;;;;4993837;28;20113;-70
2021/07/04 11:51:45;;;;;;;15.27;13.30;;;25.80;99.90;;;;;;4990720;28;20046;-70
2021/07/04 11:54:29;;;;;;;12.98;11.52;;;26.30;99.90;;;;;;5006006;28;20057;-70
2021/07/04 11:59:54;;;;;;;12.43;9.55;;;27.10;99.90;;;;;;5005174;28;20106;-70
2021/07/04 12:02:20;;;;;;;11.40;10.30;;;26.90;99.90;;;;;;5005301;28;20068;-71
2021/07/04 12:04:47;;;;;;;11.07;9.98;;;26.60;99.90;;;;;;4989064;28;20049;-70
2021/07/04 12:07:15;;;;;;;11.73;10.40;;;26.70;99.90;;;;;;4998333;28;20101;-68
2021/07/04 12:09:57;;;;;;;10.88;9.55;;;26.30;99.90;;;;;;4990846;28;20133;-69
2021/07/04 12:12:25;;;;;;;11.18;10.02;;;26.00;99.90;;;;;;4998404;28;20049;-70
2021/07/04 12:14:56;;;;;;;12.60;10.23;;;25.80;99.90;;;;;;4989533;28;20126;-70
2021/07/04 12:17:24;;;;;;;10.43;9.38;;;25.70;99.90;;;;;;4994364;28;20050;-70
2021/07/04 12:20:01;;;;;;;10.02;8.73;;;25.70;99.90;;;;;;4998774;28;20065;-69
2021/07/04 12:22:49;;;;;;;11.88;9.82;;;25.80;99.90;;;;;;4993696;28;20515;-68
2021/07/04 12:25:21;;;;;;;11.90;9.98;;;25.80;99.90;;;;;;5003019;28;20046;-70
2021/07/04 12:27:48;;;;;;;11.27;10.05;;;25.70;99.90;;;;;;4995527;28;20089;-71
2021/07/04 12:30:16;;;;;;;10.70;9.25;;;25.80;99.90;;;;;;5004564;28;20105;-70
2021/07/04 12:33:02;;;;;;;11.25;9.35;;;25.90;99.90;;;;;;5005698;28;20046;-70
2021/07/04 12:35:30;;;;;;;9.82;8.93;;;25.80;99.90;;;;;;5002033;28;20050;-70
2021/07/04 12:37:59;;;;;;;10.75;9.55;;;25.90;99.90;;;;;;4986841;28;20404;-70
2021/07/04 12:40:31;;;;;;;10.55;9.43;;;25.80;99.90;;;;;;4999011;28;20046;-70